Time;durP1;ratioP1;P1;durP2;ratioP2;P2;SDS_P1;SDS_P2;PMS_P1;PMS_P2;Temp;Humidity;BMP_temperature;BMP_pressure;BME280_temperature;BME280_humidity;BME280_pressure;Samples;Min_cycle;Max_cycle;Signal;HPM_P1;HPM_P2
2022/05/23 00:00:10;;;;;;;75.05;21.50;;;30.70;81.00;;;;;;5084484;28;20040;-48
2022/05/23 00:02:36;;;;;;;76.10;22.25;;;30.70;81.10;;;;;;5084267;28;20047;-58
2022/05/23 00:05:03;;;;;;;73.63;21.55;;;30.60;81.40;;;;;;5083822;28;20016;-50
2022/05/23 00:07:36;;;;;;;75.82;20.63;;;30.60;81.20;;;;;;5084258;28;20028;-57
2022/05/23 00:10:05;;;;;;;79.88;19.95;;;30.60;81.00;;;;;;5084213;28;20047;-47
2022/05/23 00:12:33;;;;;;;65.90;18.92;;;30.60;81.30;;;;;;5084234;28;20304;-50
2022/05/23 00:14:59;;;;;;;58.97;17.13;;;30.50;81.10;;;;;;5084234;28;20110;-54
2022/05/23 00:17:26;;;;;;;73.20;18.40;;;30.50;81.30;;;;;;5084245;28;20012;-47
2022/05/23 00:19:52;;;;;;;67.20;17.48;;;30.50;81.30;;;;;;5083691;28;20020;-53
2022/05/23 00:22:19;;;;;;;65.35;17.63;;;30.40;81.50;;;;;;5084121;28;20013;-52
2022/05/23 00:24:46;;;;;;;76.47;22.45;;;30.40;81.90;;;;;;5084116;28;20020;-49
2022/05/23 00:27:17;;;;;;;71.90;20.65;;;30.40;81.30;;;;;;5083913;28;20083;-47
2022/05/23 00:29:43;;;;;;;73.75;18.95;;;30.40;81.50;;;;;;5083840;28;20316;-48
2022/05/23 00:37:40;;;;;;;67.55;17.65;;;30.30;81.50;;;;;;5083995;28;20093;-50
2022/05/23 00:40:11;;;;;;;67.25;17.92;;;30.20;81.60;;;;;;5083793;28;20052;-47
2022/05/23 00:45:25;;;;;;;63.00;16.60;;;30.20;82.40;;;;;;5099838;28;20054;-50
2022/05/23 00:47:53;;;;;;;80.93;16.50;;;30.10;82.30;;;;;;5095591;28;20020;-49
2022/05/23 00:50:19;;;;;;;59.55;15.75;;;30.10;82.30;;;;;;5083021;28;20063;-53
2022/05/23 00:52:52;;;;;;;72.75;17.17;;;30.10;82.40;;;;;;5082498;28;20016;-54
2022/05/23 00:55:36;;;;;;;67.38;16.67;;;30.20;82.10;;;;;;5083319;28;20021;-56
2022/05/23 00:58:11;;;;;;;66.13;15.02;;;30.20;82.00;;;;;;5091273;28;20099;-48
2022/05/23 01:00:38;;;;;;;60.95;15.73;;;30.20;82.10;;;;;;5100613;28;20027;-53
2022/05/23 01:03:10;;;;;;;59.78;15.00;;;30.10;81.90;;;;;;5103908;28;20377;-57
2022/05/23 01:05:39;;;;;;;52.20;14.70;;;29.90;82.10;;;;;;5104115;28;20016;-50
2022/05/23 01:08:07;;;;;;;62.80;15.65;;;29.80;82.40;;;;;;5095021;28;20320;-58
2022/05/23 01:10:36;;;;;;;58.58;16.15;;;29.70;82.40;;;;;;5090297;28;20024;-52
2022/05/23 01:13:04;;;;;;;58.65;14.75;;;29.80;82.40;;;;;;5087985;28;20016;-51
2022/05/23 01:15:32;;;;;;;54.35;13.82;;;29.70;82.10;;;;;;5087866;28;20328;-50
2022/05/23 01:17:59;;;;;;;57.63;15.65;;;29.70;82.10;;;;;;5087952;28;20056;-51
2022/05/23 01:20:28;;;;;;;57.70;14.60;;;29.60;82.20;;;;;;5087772;28;20356;-52
2022/05/23 01:23:03;;;;;;;54.20;14.93;;;29.60;81.80;;;;;;5095675;28;20027;-55
2022/05/23 01:25:34;;;;;;;50.72;14.68;;;29.50;81.80;;;;;;5100860;28;20253;-60
2022/05/23 01:28:03;;;;;;;56.53;14.93;;;29.50;81.40;;;;;;5105953;28;20079;-54
2022/05/23 01:30:33;;;;;;;65.05;16.08;;;29.50;81.50;;;;;;5098055;28;20278;-52
2022/05/23 01:33:00;;;;;;;63.35;16.23;;;29.50;81.50;;;;;;5093995;28;20364;-54
2022/05/23 01:35:27;;;;;;;57.78;14.88;;;29.40;81.20;;;;;;5092527;28;20309;-51
2022/05/23 01:37:54;;;;;;;62.00;15.68;;;29.50;81.30;;;;;;5101153;28;20043;-60
2022/05/23 01:40:21;;;;;;;55.45;15.15;;;29.50;80.90;;;;;;5091499;28;20347;-51
2022/05/23 01:42:48;;;;;;;56.25;14.80;;;29.40;81.00;;;;;;5093533;28;20336;-51
2022/05/23 01:45:18;;;;;;;62.20;15.23;;;29.40;81.20;;;;;;5087038;28;20012;-55
2022/05/23 01:47:44;;;;;;;61.05;14.82;;;29.30;81.70;;;;;;5096039;28;20020;-55
2022/05/23 01:50:11;;;;;;;58.50;15.60;;;29.30;81.90;;;;;;5094995;28;20024;-50
2022/05/23 01:52:39;;;;;;;60.75;15.95;;;29.40;81.90;;;;;;5086818;28;20048;-46
2022/05/23 01:55:06;;;;;;;55.42;14.85;;;29.30;82.00;;;;;;5086936;28;20221;-48
2022/05/23 01:57:33;;;;;;;59.35;14.73;;;29.20;82.00;;;;;;5095200;28;20031;-51
2022/05/23 02:02:47;;;;;;;57.33;15.10;;;29.20;81.60;;;;;;5096663;28;20055;-54
2022/05/23 02:05:15;;;;;;;51.47;13.93;;;29.20;81.80;;;;;;5094030;28;20024;-50
2022/05/23 02:07:43;;;;;;;55.72;14.65;;;29.20;81.90;;;;;;5094605;28;20292;-55
2022/05/23 02:10:10;;;;;;;63.33;15.60;;;29.10;81.90;;;;;;5096966;28;20020;-52
2022/05/23 02:12:39;;;;;;;62.45;14.75;;;29.10;82.00;;;;;;5094345;28;20017;-49
2022/05/23 02:15:07;;;;;;;58.15;14.68;;;29.10;81.90;;;;;;5095809;28;20332;-57
2022/05/23 02:17:34;;;;;;;50.88;13.55;;;29.20;81.90;;;;;;5105841;28;20299;-53
2022/05/23 02:20:02;;;;;;;55.53;14.38;;;29.30;81.70;;;;;;5105383;28;20305;-58
2022/05/23 02:22:29;;;;;;;51.15;14.10;;;29.30;81.50;;;;;;5105594;28;20300;-62
2022/05/23 02:24:55;;;;;;;52.80;13.32;;;29.40;81.40;;;;;;5105450;28;20276;-57
2022/05/23 02:27:22;;;;;;;55.92;13.70;;;29.40;81.30;;;;;;5105374;28;20016;-55
2022/05/23 02:29:48;;;;;;;52.95;14.05;;;29.50;81.20;;;;;;5100030;28;20023;-54
2022/05/23 02:32:15;;;;;;;47.80;13.40;;;29.50;81.20;;;;;;5097953;28;20016;-55
2022/05/23 02:34:42;;;;;;;53.42;14.15;;;29.50;81.10;;;;;;5100748;28;20024;-62
2022/05/23 02:37:09;;;;;;;56.20;14.65;;;29.50;81.10;;;;;;5105315;28;20020;-57
2022/05/23 02:39:36;;;;;;;61.75;13.57;;;29.50;81.10;;;;;;5105771;28;20034;-58
2022/05/23 02:42:04;;;;;;;53.92;13.80;;;29.50;81.10;;;;;;5105105;28;20023;-58
2022/05/23 02:44:30;;;;;;;45.83;12.55;;;29.50;81.10;;;;;;5105813;28;20099;-57
2022/05/23 02:46:57;;;;;;;51.20;14.50;;;29.50;81.20;;;;;;5105243;28;20212;-58
2022/05/23 02:49:24;;;;;;;60.15;17.17;;;29.50;81.20;;;;;;5099299;28;20071;-54
2022/05/23 02:51:50;;;;;;;62.28;23.73;;;29.50;81.20;;;;;;5090281;28;20020;-54
2022/05/23 02:54:17;;;;;;;66.13;27.02;;;29.50;81.20;;;;;;5093969;28;20036;-54
2022/05/23 02:56:43;;;;;;;63.20;29.13;;;29.50;81.30;;;;;;5094744;28;20360;-56
2022/05/23 02:59:10;;;;;;;58.95;28.70;;;29.60;81.30;;;;;;5092437;28;20186;-53
2022/05/23 03:04:35;;;;;;;94.85;58.42;;;29.60;81.30;;;;;;5122133;27;20434;-55
2022/05/23 03:07:01;;;;;;;91.55;53.08;;;29.60;81.40;;;;;;5121865;28;20250;-53
2022/05/23 03:09:30;;;;;;;83.20;45.70;;;29.60;81.40;;;;;;5122049;28;20088;-53
2022/05/23 03:11:57;;;;;;;77.28;38.90;;;29.60;81.40;;;;;;5121966;28;20023;-53
2022/05/23 03:14:25;;;;;;;75.80;35.63;;;29.60;81.40;;;;;;5121745;28;20032;-58
2022/05/23 03:16:51;;;;;;;78.90;31.38;;;29.60;81.60;;;;;;5121649;28;20220;-61
2022/05/23 03:19:18;;;;;;;69.03;28.58;;;29.50;81.50;;;;;;5122064;28;20093;-55
2022/05/23 03:27:14;;;;;;;51.50;21.20;;;29.50;81.50;;;;;;5100841;28;20253;-53
2022/05/23 03:29:41;;;;;;;55.85;19.83;;;29.60;81.60;;;;;;5101027;28;20049;-54
2022/05/23 03:32:07;;;;;;;52.00;18.35;;;29.50;81.50;;;;;;5101205;28;20182;-53
2022/05/23 03:34:34;;;;;;;54.15;18.33;;;29.50;81.40;;;;;;5100827;28;20059;-54
2022/05/23 03:37:01;;;;;;;48.65;16.48;;;29.50;81.50;;;;;;5097452;28;20043;-55
2022/05/23 03:39:28;;;;;;;62.35;17.63;;;29.50;81.40;;;;;;5091836;28;20020;-58
2022/05/23 03:41:55;;;;;;;55.17;16.33;;;29.50;81.40;;;;;;5100672;28;20022;-53
2022/05/23 03:44:21;;;;;;;52.70;15.93;;;29.50;81.50;;;;;;5101274;28;20031;-55
2022/05/23 03:46:48;;;;;;;54.30;15.68;;;29.50;81.40;;;;;;5100902;28;20016;-56
2022/05/23 03:49:14;;;;;;;52.38;15.60;;;29.50;81.40;;;;;;5101133;28;20249;-52
2022/05/23 03:51:41;;;;;;;55.90;14.63;;;29.50;81.40;;;;;;5100997;28;20032;-55
2022/05/23 03:54:08;;;;;;;45.63;14.38;;;29.50;81.50;;;;;;5101214;28;20043;-57
2022/05/23 03:56:34;;;;;;;53.08;13.60;;;29.40;81.50;;;;;;5097548;28;20243;-56
2022/05/23 03:59:01;;;;;;;50.28;13.73;;;29.40;81.50;;;;;;5089389;28;20032;-56
2022/05/23 04:01:30;;;;;;;58.33;14.90;;;29.40;81.40;;;;;;5090303;28;20199;-53
2022/05/23 04:03:58;;;;;;;49.78;14.25;;;29.40;81.40;;;;;;5080200;28;20309;-53
2022/05/23 04:06:24;;;;;;;53.97;14.38;;;29.40;81.40;;;;;;5084926;28;20208;-58
2022/05/23 04:08:51;;;;;;;47.38;13.60;;;29.40;81.30;;;;;;5100893;28;20192;-58
2022/05/23 04:11:18;;;;;;;54.03;13.90;;;29.40;81.40;;;;;;5100400;28;20028;-55
2022/05/23 04:13:44;;;;;;;59.35;14.18;;;29.40;81.90;;;;;;5098969;28;20194;-55
2022/05/23 04:16:11;;;;;;;63.08;15.65;;;29.30;82.00;;;;;;5086537;28;20094;-60
2022/05/23 04:18:37;;;;;;;56.15;13.95;;;29.40;82.00;;;;;;5087090;28;20056;-54
2022/05/23 04:21:05;;;;;;;54.90;14.43;;;29.30;82.00;;;;;;5086546;28;20024;-55
2022/05/23 04:23:31;;;;;;;54.97;13.63;;;29.30;82.00;;;;;;5086920;28;20230;-57
2022/05/23 04:26:03;;;;;;;47.72;13.95;;;29.30;81.90;;;;;;5086674;28;20066;-56
2022/05/23 04:28:30;;;;;;;53.80;14.27;;;29.30;81.90;;;;;;5086806;28;20080;-56
2022/05/23 04:30:56;;;;;;;51.75;13.63;;;29.30;81.80;;;;;;5082506;28;20024;-53
2022/05/23 04:36:08;;;;;;;55.15;13.20;;;29.30;81.80;;;;;;5086382;28;20019;-55
2022/05/23 04:38:34;;;;;;;42.28;12.68;;;29.30;81.80;;;;;;5086645;28;20028;-60
2022/05/23 04:41:01;;;;;;;50.50;12.65;;;29.30;81.60;;;;;;5086149;28;20059;-58
2022/05/23 04:43:27;;;;;;;47.13;13.35;;;29.30;81.60;;;;;;5086624;28;20032;-60
2022/05/23 04:45:54;;;;;;;42.78;12.38;;;29.30;81.50;;;;;;5086230;28;20340;-58
2022/05/23 04:51:05;;;;;;;39.75;11.48;;;29.30;81.30;;;;;;5086187;28;20134;-56
2022/05/23 04:53:32;;;;;;;41.67;12.07;;;29.30;81.30;;;;;;5086384;28;20028;-55
2022/05/23 04:56:00;;;;;;;46.40;12.20;;;29.30;81.30;;;;;;5086144;28;20359;-53
2022/05/23 04:58:30;;;;;;;37.20;11.07;;;29.30;81.20;;;;;;5085854;28;20043;-57
2022/05/23 05:00:56;;;;;;;38.72;11.65;;;29.30;81.30;;;;;;5085780;28;20088;-53
2022/05/23 05:03:23;;;;;;;42.50;11.32;;;29.30;81.30;;;;;;5085609;28;20041;-54
2022/05/23 05:05:50;;;;;;;38.00;10.88;;;29.30;81.20;;;;;;5085853;28;20031;-53
2022/05/23 05:08:16;;;;;;;36.88;10.80;;;29.30;81.20;;;;;;5085948;28;20024;-62
2022/05/23 05:10:43;;;;;;;34.97;11.25;;;29.30;81.20;;;;;;5085715;28;20020;-53
2022/05/23 05:13:10;;;;;;;37.10;11.40;;;29.30;81.30;;;;;;5085857;28;20074;-54
2022/05/23 05:15:36;;;;;;;35.53;10.88;;;29.30;81.40;;;;;;5085570;28;20095;-53
2022/05/23 05:18:03;;;;;;;37.13;10.45;;;29.30;81.40;;;;;;5085774;28;20050;-53
2022/05/23 05:20:30;;;;;;;36.95;10.82;;;29.30;81.30;;;;;;5085632;28;20024;-54
2022/05/23 05:22:56;;;;;;;35.22;10.32;;;29.30;81.30;;;;;;5084167;28;20029;-58
2022/05/23 05:25:23;;;;;;;34.47;10.55;;;29.30;81.40;;;;;;5085076;28;20021;-56
2022/05/23 05:27:50;;;;;;;34.03;10.45;;;29.30;81.30;;;;;;5084970;28;20027;-55
2022/05/23 05:30:20;;;;;;;37.85;10.05;;;29.30;81.40;;;;;;5085201;28;20142;-54
2022/05/23 05:33:03;;;;;;;39.47;10.65;;;29.30;81.20;;;;;;5085316;28;20027;-54
2022/05/23 05:35:33;;;;;;;46.45;11.73;;;29.30;81.20;;;;;;5085236;28;20016;-58
2022/05/23 05:38:27;;;;;;;30.40;9.82;;;29.30;81.20;;;;;;5085220;28;20321;-55
2022/05/23 05:41:03;;;;;;;35.85;11.35;;;29.30;81.20;;;;;;5085087;28;20025;-52
2022/05/23 05:43:40;;;;;;;37.00;10.38;;;29.30;81.20;;;;;;5085037;28;20081;-56
2022/05/23 05:46:21;;;;;;;37.53;10.52;;;29.20;81.20;;;;;;5084801;28;20016;-56
2022/05/23 05:48:50;;;;;;;35.92;10.80;;;29.20;81.20;;;;;;5085465;28;20024;-52
2022/05/23 05:51:20;;;;;;;33.80;10.65;;;29.20;81.20;;;;;;5084823;28;20012;-61
2022/05/23 05:53:49;;;;;;;40.85;11.18;;;29.20;81.20;;;;;;5085140;28;20081;-53
2022/05/23 05:56:17;;;;;;;41.22;11.40;;;29.20;81.20;;;;;;5084768;28;20017;-58
2022/05/23 05:58:44;;;;;;;34.40;10.02;;;29.20;81.20;;;;;;5084945;28;20059;-52
2022/05/23 06:01:11;;;;;;;34.78;10.63;;;29.20;81.30;;;;;;5084709;28;20040;-58
2022/05/23 06:03:37;;;;;;;34.00;10.35;;;29.20;81.40;;;;;;5084404;28;20051;-56
2022/05/23 06:11:48;;;;;;;36.53;11.25;;;29.20;81.40;;;;;;5051135;28;20209;-55
2022/05/23 06:14:15;;;;;;;35.72;11.15;;;29.10;81.30;;;;;;5084915;28;20063;-61
2022/05/23 06:16:41;;;;;;;37.30;10.85;;;29.10;81.30;;;;;;5084326;28;20012;-57
2022/05/23 06:19:08;;;;;;;42.85;11.20;;;29.10;81.30;;;;;;5084749;28;20208;-54
2022/05/23 06:21:34;;;;;;;34.63;10.70;;;29.10;81.30;;;;;;5084330;28;20058;-58
2022/05/23 06:24:01;;;;;;;37.67;10.23;;;29.10;81.30;;;;;;5084405;28;20028;-56
2022/05/23 06:26:28;;;;;;;32.05;10.25;;;29.10;81.30;;;;;;5084252;28;20016;-56
2022/05/23 06:28:55;;;;;;;35.60;10.73;;;29.10;81.30;;;;;;5084559;28;20031;-53
2022/05/23 06:31:22;;;;;;;38.42;10.85;;;29.10;81.30;;;;;;5084038;28;20013;-60
2022/05/23 06:33:49;;;;;;;37.05;10.50;;;29.10;81.40;;;;;;5084457;28;20047;-58
2022/05/23 06:36:17;;;;;;;34.22;10.48;;;29.10;81.40;;;;;;5084067;28;20078;-53
2022/05/23 06:38:43;;;;;;;36.80;10.82;;;29.10;81.40;;;;;;5084113;28;20032;-55
2022/05/23 06:41:11;;;;;;;37.70;11.30;;;29.10;81.50;;;;;;5084077;28;20043;-55
2022/05/23 06:43:39;;;;;;;34.70;10.05;;;29.10;81.50;;;;;;5083899;28;20031;-58
2022/05/23 06:46:07;;;;;;;41.45;10.68;;;29.10;81.50;;;;;;5084077;28;20114;-58
2022/05/23 06:48:34;;;;;;;44.55;11.40;;;29.10;81.60;;;;;;5084304;28;20024;-53
2022/05/23 06:51:02;;;;;;;39.42;10.98;;;29.10;81.70;;;;;;5083893;28;20316;-59
2022/05/23 06:53:29;;;;;;;40.00;10.98;;;29.10;81.70;;;;;;5084066;28;20033;-53
2022/05/23 06:55:56;;;;;;;37.42;11.02;;;29.10;81.80;;;;;;5084012;28;20039;-57
2022/05/23 06:58:23;;;;;;;32.35;10.45;;;29.00;81.60;;;;;;5084155;28;20032;-53
2022/05/23 07:00:51;;;;;;;34.60;10.40;;;29.00;81.70;;;;;;5083676;28;20017;-58
2022/05/23 07:03:17;;;;;;;37.30;10.98;;;29.00;81.70;;;;;;5083568;28;20049;-53
2022/05/23 07:14:02;;;;;;;39.90;10.85;;;29.00;82.00;;;;;;5084165;28;20031;-61
2022/05/23 07:16:31;;;;;;;37.70;11.25;;;29.00;82.00;;;;;;5083627;28;20017;-56
2022/05/23 07:18:58;;;;;;;38.92;11.77;;;28.90;82.00;;;;;;5083921;28;20030;-56
2022/05/23 07:21:25;;;;;;;36.28;11.30;;;29.00;82.70;;;;;;5083589;28;20333;-55
2022/05/23 07:23:52;;;;;;;35.80;11.20;;;28.90;82.10;;;;;;5083902;28;20097;-55
2022/05/23 07:26:19;;;;;;;37.63;11.10;;;28.90;82.20;;;;;;5083438;28;20012;-56
2022/05/23 07:28:48;;;;;;;40.05;11.38;;;28.90;82.30;;;;;;5083534;28;20028;-58
2022/05/23 07:31:16;;;;;;;45.53;10.98;;;28.90;82.30;;;;;;5083617;28;20178;-56
2022/05/23 07:33:43;;;;;;;36.47;10.57;;;28.90;82.30;;;;;;5083855;28;20028;-53
2022/05/23 07:36:11;;;;;;;38.15;11.52;;;28.90;82.40;;;;;;5083556;28;20048;-57
2022/05/23 07:38:38;;;;;;;39.10;10.77;;;28.90;82.40;;;;;;5083855;28;20036;-56
2022/05/23 07:41:07;;;;;;;39.70;11.27;;;28.90;82.50;;;;;;5083402;28;20023;-55
2022/05/23 07:43:37;;;;;;;35.10;11.30;;;28.90;82.40;;;;;;5083667;28;20028;-53
2022/05/23 07:46:09;;;;;;;39.70;11.50;;;28.90;82.50;;;;;;5083265;28;20012;-56
2022/05/23 07:48:45;;;;;;;33.53;10.77;;;28.90;82.50;;;;;;5083715;28;20031;-55
2022/05/23 07:51:13;;;;;;;37.22;10.75;;;28.90;82.50;;;;;;5086875;28;20075;-58
2022/05/23 08:01:54;;;;;;;36.58;11.57;;;28.80;82.60;;;;;;5087155;28;20101;-57
2022/05/23 08:04:22;;;;;;;38.38;11.80;;;28.80;82.70;;;;;;5086665;28;20044;-53
2022/05/23 08:06:49;;;;;;;37.13;11.02;;;28.80;82.70;;;;;;5086900;28;20358;-58
2022/05/23 08:09:17;;;;;;;38.95;10.98;;;28.80;82.70;;;;;;5087119;28;20028;-57
2022/05/23 08:11:46;;;;;;;38.45;11.55;;;28.80;82.60;;;;;;5086750;28;20089;-56
2022/05/23 08:14:13;;;;;;;35.92;11.50;;;28.80;82.60;;;;;;5086714;28;20071;-58
2022/05/23 08:16:39;;;;;;;39.03;11.55;;;28.80;82.60;;;;;;5086611;28;20062;-54
2022/05/23 08:19:07;;;;;;;36.72;11.05;;;28.80;82.60;;;;;;5087120;28;20028;-54
2022/05/23 08:21:35;;;;;;;39.38;11.02;;;28.80;82.60;;;;;;5086611;28;20026;-56
2022/05/23 08:24:02;;;;;;;37.28;11.43;;;28.80;82.60;;;;;;5086667;28;20078;-53
2022/05/23 08:26:29;;;;;;;37.08;11.35;;;28.70;82.60;;;;;;5086509;28;20209;-52
2022/05/23 08:28:55;;;;;;;48.58;11.43;;;28.80;82.60;;;;;;5086900;28;20025;-55
2022/05/23 08:31:22;;;;;;;34.25;11.00;;;28.70;82.60;;;;;;5086322;28;20212;-54
2022/05/23 08:33:49;;;;;;;37.72;10.88;;;28.70;82.60;;;;;;5086760;28;20247;-54
2022/05/23 08:36:15;;;;;;;40.95;11.13;;;28.70;82.60;;;;;;5086317;28;20028;-58
2022/05/23 08:38:42;;;;;;;36.35;10.82;;;28.70;82.50;;;;;;5086546;28;20032;-55
2022/05/23 08:41:31;;;;;;;41.53;11.77;;;28.70;82.60;;;;;;5086503;28;20024;-56
2022/05/23 08:44:39;;;;;;;34.85;10.80;;;28.70;82.70;;;;;;5086464;28;20233;-53
2022/05/23 08:47:23;;;;;;;35.45;11.07;;;28.70;82.70;;;;;;5085902;28;20017;-51
2022/05/23 08:50:07;;;;;;;45.45;11.35;;;28.70;82.80;;;;;;5086134;28;20374;-56
2022/05/23 08:52:53;;;;;;;35.83;10.80;;;28.70;82.70;;;;;;5085990;28;20024;-54
2022/05/23 08:55:24;;;;;;;37.47;11.40;;;28.70;82.80;;;;;;5085951;28;20317;-57
2022/05/23 08:57:54;;;;;;;40.88;11.48;;;28.70;82.90;;;;;;5085930;28;20028;-56
2022/05/23 09:00:27;;;;;;;36.03;10.55;;;28.70;82.80;;;;;;5086031;28;20025;-56
2022/05/23 09:03:03;;;;;;;31.90;10.88;;;28.70;82.80;;;;;;5085492;28;20071;-54
2022/05/23 09:05:41;;;;;;;47.58;11.68;;;28.60;82.70;;;;;;5085743;28;20021;-57
2022/05/23 09:08:21;;;;;;;32.25;10.82;;;28.60;82.70;;;;;;5085815;28;20032;-56
2022/05/23 09:10:59;;;;;;;31.00;10.68;;;28.60;82.70;;;;;;5085604;28;20023;-56
2022/05/23 09:13:30;;;;;;;38.90;11.40;;;28.60;82.50;;;;;;5085435;28;20032;-57
2022/05/23 09:16:04;;;;;;;37.90;11.00;;;28.60;82.60;;;;;;5085563;28;20024;-54
2022/05/23 09:18:57;;;;;;;38.92;11.18;;;28.60;82.60;;;;;;5085808;28;20376;-54
2022/05/23 09:22:12;;;;;;;;;;;28.60;82.60;;;;;;5084788;28;20235;-57
2022/05/23 09:24:11;;;;;;;40.97;11.13;;;28.60;82.60;;;;;;5085558;28;19912;-58
2022/05/23 09:26:38;;;;;;;32.55;10.90;;;28.60;82.60;;;;;;5085339;28;20036;-63
2022/05/23 09:29:08;;;;;;;35.30;10.80;;;28.50;82.50;;;;;;5085802;28;20024;-59
2022/05/23 09:31:53;;;;;;;35.72;10.93;;;28.50;82.50;;;;;;5085274;28;20070;-63
2022/05/23 09:34:44;;;;;;;35.83;10.93;;;28.50;82.40;;;;;;5085730;28;20059;-55
2022/05/23 09:37:28;;;;;;;36.85;10.85;;;28.50;82.30;;;;;;5085345;28;20017;-56
2022/05/23 09:39:59;;;;;;;37.75;11.20;;;28.50;82.30;;;;;;5084927;28;20031;-56
2022/05/23 09:48:17;;;;;;;41.80;10.73;;;28.50;82.30;;;;;;5085085;28;20051;-56
2022/05/23 09:51:01;;;;;;;34.42;10.20;;;28.50;82.30;;;;;;5084827;28;20019;-53
2022/05/23 09:53:47;;;;;;;35.75;11.57;;;28.40;82.20;;;;;;5084986;28;20066;-53
2022/05/23 09:56:40;;;;;;;33.45;10.60;;;28.40;82.10;;;;;;5084687;28;20020;-55
2022/05/23 09:59:25;;;;;;;32.38;10.93;;;28.50;82.10;;;;;;5084693;28;20347;-54
2022/05/23 10:01:53;;;;;;;33.20;10.82;;;28.40;82.00;;;;;;5084786;28;20028;-60
2022/05/23 10:04:44;;;;;;;40.03;10.93;;;28.40;82.00;;;;;;5084212;28;20386;-52
2022/05/23 10:07:31;;;;;;;33.75;10.82;;;28.40;81.90;;;;;;5084413;28;20025;-57
2022/05/23 10:10:01;;;;;;;36.42;11.45;;;28.40;81.80;;;;;;5084533;28;20032;-56
2022/05/23 10:12:28;;;;;;;30.30;10.02;;;28.40;81.60;;;;;;5083886;28;20312;-58
2022/05/23 10:15:06;;;;;;;36.28;11.25;;;28.40;81.60;;;;;;5084394;28;20312;-52
2022/05/23 10:17:38;;;;;;;33.38;10.45;;;28.40;81.40;;;;;;5084484;28;20044;-58
2022/05/23 10:20:23;;;;;;;;;;;28.40;81.20;;;;;;5084890;28;20185;-54
2022/05/23 10:22:56;;;;;;;40.88;10.88;;;28.40;81.20;;;;;;5084289;28;19916;-54
2022/05/23 10:25:24;;;;;;;33.97;11.27;;;28.30;81.00;;;;;;5084203;28;20083;-57
2022/05/23 10:28:08;;;;;;;35.15;10.55;;;28.30;80.90;;;;;;5084404;28;20032;-56
2022/05/23 10:30:38;;;;;;;35.85;10.82;;;28.30;80.80;;;;;;5084077;28;20035;-60
2022/05/23 10:33:12;;;;;;;40.15;11.95;;;28.30;80.70;;;;;;5084448;28;20020;-57
2022/05/23 10:36:03;;;;;;;34.60;10.95;;;28.30;80.70;;;;;;5083901;28;20336;-57
2022/05/23 10:44:47;;;;;;;38.63;10.02;;;28.30;80.60;;;;;;5084011;28;20092;-56
2022/05/23 10:47:32;;;;;;;35.67;10.27;;;28.30;80.60;;;;;;5083705;28;20039;-54
2022/05/23 10:50:19;;;;;;;33.75;10.32;;;28.30;80.60;;;;;;5083840;28;20020;-58
2022/05/23 10:53:23;;;;;;;36.20;11.25;;;28.20;80.40;;;;;;5084155;28;20035;-59
2022/05/23 10:56:11;;;;;;;39.72;11.60;;;28.20;80.30;;;;;;5083936;28;20016;-52
2022/05/23 10:58:45;;;;;;;36.55;11.05;;;28.30;80.20;;;;;;5084247;28;20044;-56
2022/05/23 11:01:21;;;;;;;40.67;11.07;;;28.20;80.00;;;;;;5083774;28;20046;-56
2022/05/23 11:03:59;;;;;;;37.17;10.60;;;28.30;80.00;;;;;;5083723;28;20050;-55
2022/05/23 11:06:35;;;;;;;40.25;11.43;;;28.30;79.80;;;;;;5084022;28;20070;-55
2022/05/23 11:09:20;;;;;;;40.08;11.02;;;28.30;79.60;;;;;;5084295;28;20025;-53
2022/05/23 11:12:02;;;;;;;44.35;10.25;;;28.30;79.30;;;;;;5083973;28;20021;-56
2022/05/23 11:14:43;;;;;;;47.53;11.52;;;28.40;78.50;;;;;;5083719;28;20021;-54
2022/05/23 11:17:22;;;;;;;42.13;11.07;;;28.50;78.30;;;;;;5083759;28;20048;-56
2022/05/23 11:20:21;;;;;;;44.25;11.38;;;28.50;78.00;;;;;;5083611;28;20185;-55
2022/05/23 11:23:04;;;;;;;35.58;10.68;;;28.60;77.70;;;;;;5083457;28;20221;-56
2022/05/23 11:25:35;;;;;;;40.90;12.38;;;28.60;77.70;;;;;;5086080;28;20020;-57
2022/05/23 11:34:34;;;;;;;39.45;11.48;;;28.70;78.50;;;;;;5088011;28;20257;-56
2022/05/23 11:37:42;;;;;;;41.55;12.15;;;28.70;78.50;;;;;;5087341;28;20020;-58
2022/05/23 11:40:11;;;;;;;51.63;14.02;;;28.70;78.70;;;;;;5087156;28;20024;-54
2022/05/23 11:42:52;;;;;;;50.97;12.88;;;28.70;79.10;;;;;;5087365;28;20048;-55
2022/05/23 11:46:05;;;;;;;45.40;12.80;;;28.80;79.30;;;;;;5087669;28;20086;-58
2022/05/23 11:51:26;;;;;;;54.38;13.77;;;28.70;79.70;;;;;;5087199;28;20008;-54
2022/05/23 11:54:06;;;;;;;49.83;13.00;;;28.70;80.00;;;;;;5086147;28;20243;-61
2022/05/23 11:57:02;;;;;;;55.90;13.10;;;28.70;80.20;;;;;;5086875;28;20344;-57
2022/05/23 11:59:29;;;;;;;56.25;13.10;;;28.70;80.40;;;;;;5060110;28;20317;-53
2022/05/23 12:02:07;;;;;;;50.65;12.88;;;28.70;80.60;;;;;;5086912;28;20012;-57
2022/05/23 12:04:49;;;;;;;50.13;13.70;;;28.70;80.80;;;;;;5086737;28;20048;-55
2022/05/23 12:07:37;;;;;;;47.45;13.00;;;28.70;81.00;;;;;;5086734;28;20032;-56
2022/05/23 12:10:36;;;;;;;53.40;13.32;;;28.80;81.30;;;;;;5086802;28;20288;-59
2022/05/23 12:13:31;;;;;;;49.67;13.05;;;28.80;81.60;;;;;;5066340;28;20070;-54
2022/05/23 12:16:20;;;;;;;56.35;13.88;;;28.80;81.70;;;;;;5086807;28;20047;-56
2022/05/23 12:18:48;;;;;;;56.20;12.98;;;28.80;81.70;;;;;;5086843;28;20025;-57
2022/05/23 12:21:36;;;;;;;56.72;14.15;;;28.80;81.60;;;;;;5086728;28;20048;-57
2022/05/23 12:24:26;;;;;;;46.58;11.65;;;28.90;81.70;;;;;;5086756;28;20334;-56
2022/05/23 12:26:57;;;;;;;51.42;13.63;;;28.90;82.20;;;;;;5086457;28;20069;-57
2022/05/23 12:29:38;;;;;;;50.13;11.80;;;28.90;81.50;;;;;;5086303;28;20028;-58
2022/05/23 12:32:11;;;;;;;47.22;12.75;;;28.90;81.50;;;;;;5086386;28;20088;-57
2022/05/23 12:34:43;;;;;;;45.67;12.27;;;28.90;81.40;;;;;;5086247;28;20101;-63
2022/05/23 12:37:43;;;;;;;49.22;13.25;;;29.00;81.40;;;;;;5086059;28;20252;-54
2022/05/23 12:40:10;;;;;;;41.95;12.40;;;28.90;81.40;;;;;;5074984;28;20029;-55
2022/05/23 12:42:50;;;;;;;50.53;13.52;;;28.90;81.40;;;;;;5086218;28;20032;-56
2022/05/23 12:45:29;;;;;;;53.28;12.52;;;29.00;81.60;;;;;;5086467;28;20028;-56
2022/05/23 12:48:15;;;;;;;44.42;12.85;;;29.00;81.60;;;;;;5086443;28;20022;-63
2022/05/23 12:51:06;;;;;;;52.47;12.75;;;29.00;81.80;;;;;;5086034;28;20020;-57
2022/05/23 12:54:09;;;;;;;49.80;13.55;;;29.00;81.80;;;;;;5086230;28;20312;-58
2022/05/23 12:56:46;;;;;;;52.13;13.05;;;29.00;81.90;;;;;;5062004;28;20064;-57
2022/05/23 12:59:43;;;;;;;43.10;12.32;;;29.00;82.00;;;;;;5086330;28;20028;-60
2022/05/23 13:02:24;;;;;;;56.42;14.18;;;29.00;81.90;;;;;;5085859;28;20041;-58
2022/05/23 13:05:00;;;;;;;49.83;12.73;;;29.00;82.00;;;;;;5085886;28;20095;-57
2022/05/23 13:07:44;;;;;;;46.30;13.13;;;29.00;82.10;;;;;;5086074;28;20027;-56
2022/05/23 13:10:20;;;;;;;47.30;12.73;;;29.00;82.00;;;;;;5085847;28;20019;-55
2022/05/23 13:13:25;;;;;;;38.45;11.25;;;29.10;82.30;;;;;;5085664;28;20374;-55
2022/05/23 13:15:51;;;;;;;41.03;12.18;;;29.10;82.40;;;;;;5062298;28;20284;-59
2022/05/23 13:23:52;;;;;;;50.10;12.60;;;29.20;82.50;;;;;;5085761;28;20204;-54
2022/05/23 13:26:21;;;;;;;38.65;10.82;;;29.20;82.50;;;;;;5085199;28;20180;-54
2022/05/23 13:28:53;;;;;;;42.92;11.63;;;29.30;82.50;;;;;;5085697;28;20025;-59
2022/05/23 13:31:33;;;;;;;39.42;11.75;;;29.30;82.40;;;;;;5085464;28;20210;-58
2022/05/23 13:34:00;;;;;;;37.22;11.30;;;29.30;82.60;;;;;;5085587;28;20036;-57
2022/05/23 13:36:43;;;;;;;39.10;11.18;;;29.30;82.40;;;;;;5085216;28;20016;-57
2022/05/23 13:39:17;;;;;;;37.65;10.80;;;29.30;82.30;;;;;;5085914;28;20099;-56
2022/05/23 13:41:44;;;;;;;45.08;12.32;;;29.30;82.30;;;;;;5085000;28;20302;-63
2022/05/23 13:44:40;;;;;;;39.55;11.57;;;29.30;82.40;;;;;;5085364;28;20033;-55
2022/05/23 13:47:12;;;;;;;39.80;11.38;;;29.30;82.10;;;;;;5071230;28;20035;-55
2022/05/23 13:49:42;;;;;;;;;;;29.30;81.60;;;;;;5085619;28;20032;-64
2022/05/23 13:52:14;;;;;;;40.58;11.38;;;29.30;81.40;;;;;;5084802;28;19900;-58
2022/05/23 13:54:51;;;;;;;;;;;29.30;81.50;;;;;;5085133;28;20024;-56
2022/05/23 13:57:32;;;;;;;32.60;10.70;;;29.40;81.90;;;;;;5084758;28;19938;-57
2022/05/23 14:00:14;;;;;;;36.63;10.27;;;29.40;81.70;;;;;;5084704;28;20033;-59
2022/05/23 14:03:22;;;;;;;39.77;11.07;;;29.40;81.80;;;;;;5084479;28;20035;-56
2022/05/23 14:05:53;;;;;;;42.33;11.18;;;29.40;81.40;;;;;;5084544;28;20016;-59
2022/05/23 14:08:36;;;;;;;44.90;12.20;;;29.40;81.10;;;;;;5084751;28;20044;-54